Darstellungsparameter: Aktuell verwendete Einstellungen:
Skalierung der Graphiken ... ?
xyx+y,   Skalierungsfaktor:      Skalierung: Modus: x, Faktor: 1
Darstellungszeitraum ... ?
Vom - - bis: - -   Zeitraum: 14.11.2020 - 14.11.2020
Min/Max/Avg-Anzeige ... ?
Zeige MMA aktuell
Zeige MMA Monat
Zeige MMA alles
Zeige --A aktuell
Zeige --A Monat
Zeige --A alles
Keine MMA-Anzeige
MMA:
Average (ber die Originaldaten)
MMA-Basis: 14.11.2020 - 14.11.2020
Quicknavigation für Darstellung... ?
Tage:      1T, 2T, 3T, 5T -1T -2T -3T -5T +1T +2T +3T +5T
Wochen: 1W, 2W, 3W -1W -2W -3W +1W +2W +3W
Monate: 1M, 3M, 6M -1M -3M -6M +1M +3M +6M
Jahre:    1J, 3J, 5J, 10J -1J -3J -5J -10J +1J +3J +5J +10J
Nutze für die Darstellung ... ?
Originaldaten oder Mittelwerte auf ...
Stundenbasis Tagesbasis Wochenbasis
Monatsbasis Jahresbasis      Datenbasis: Original-Daten
Darstellen als:
Statistik (Auto) Statistik J:M      Darstellung:
Zur Graphik,    zurück zur Übersicht aller Sensoren.
 
Tabellarische Datenbersicht: ?
 
Sensor: Nr:Datum:Temp:Abs-Feuchte:Windchill:Wind:
Aussen-T/F 1 14-11-2020 00:00:00 10.6 C 9.17 g/m*3 10.6 C 0 km/h
2 14-11-2020 00:05:00 10.6 C 9.17 g/m*3 10.6 C 0 km/h
3 14-11-2020 00:10:00 10.4 C 9.06 g/m*3 10.4 C 0 km/h
4 14-11-2020 00:15:00 10.4 C 9.16 g/m*3 10.4 C 0 km/h
5 14-11-2020 00:20:00 10.4 C 9.16 g/m*3 10.4 C 0 km/h
6 14-11-2020 00:25:00 10.5 C 9.21 g/m*3 10.5 C 0 km/h
7 14-11-2020 00:30:00 10.6 C 9.27 g/m*3 10.6 C 1.6 km/h
8 14-11-2020 00:35:00 10.5 C 9.21 g/m*3 10.5 C 0 km/h
9 14-11-2020 00:40:00 10.5 C 9.21 g/m*3 10.5 C 0 km/h
10 14-11-2020 00:45:00 10.4 C 9.16 g/m*3 10.4 C 1.6 km/h
11 14-11-2020 00:50:00 10.3 C 9.1 g/m*3 10.3 C 3.2 km/h
12 14-11-2020 00:55:00 10.3 C 9.1 g/m*3 10.3 C 0 km/h
13 14-11-2020 01:00:00 10.3 C 9.1 g/m*3 10.3 C 1.6 km/h
14 14-11-2020 01:05:00 10.3 C 9.1 g/m*3 10.3 C 0 km/h
15 14-11-2020 01:10:00 10.2 C 9.04 g/m*3 10.2 C 0 km/h
16 14-11-2020 01:15:00 10.2 C 9.04 g/m*3 10.2 C 1.6 km/h
17 14-11-2020 01:20:00 10.2 C 9.04 g/m*3 9.6 C 6.4 km/h
18 14-11-2020 01:25:00 10.3 C 9.1 g/m*3 10.3 C 1.6 km/h
19 14-11-2020 01:30:00 10.3 C 9.1 g/m*3 10.3 C 0 km/h
20 14-11-2020 01:35:00 10.4 C 9.16 g/m*3 10.4 C 0 km/h
21 14-11-2020 01:40:00 10.5 C 9.31 g/m*3 10.5 C 1.6 km/h
22 14-11-2020 01:45:00 10.6 C 9.37 g/m*3 10.6 C 0 km/h
23 14-11-2020 01:50:00 10.6 C 9.37 g/m*3 10.6 C 0 km/h
24 14-11-2020 01:55:00 10.7 C 9.43 g/m*3 10.7 C 0 km/h
25 14-11-2020 02:00:00 10.7 C 9.43 g/m*3 10.7 C 0 km/h
Sensor: Nr:Datum:Temp:Abs-Feuchte:Windchill:Wind:
Aussen-T/F 26 14-11-2020 02:05:00 10.7 C 9.43 g/m*3 10.7 C 0 km/h
27 14-11-2020 02:10:00 10.8 C 9.49 g/m*3 10.8 C 3.2 km/h
28 14-11-2020 02:15:00 10.8 C 9.39 g/m*3 10.8 C 3.2 km/h
29 14-11-2020 02:20:00 10.8 C 9.39 g/m*3 10.8 C 4.8 km/h
30 14-11-2020 02:25:00 10.8 C 9.39 g/m*3 10.8 C 3.2 km/h
31 14-11-2020 02:30:00 10.8 C 9.39 g/m*3 10.8 C 0 km/h
32 14-11-2020 02:35:00 10.8 C 9.39 g/m*3 10.8 C 1.6 km/h
33 14-11-2020 02:40:00 10.9 C 9.45 g/m*3 10.9 C 1.6 km/h
34 14-11-2020 02:45:00 10.9 C 9.45 g/m*3 10.9 C 1.6 km/h
35 14-11-2020 02:50:00 10.9 C 9.45 g/m*3 10.9 C 4.8 km/h
36 14-11-2020 02:55:00 10.9 C 9.45 g/m*3 10.9 C 0 km/h
37 14-11-2020 03:00:00 10.9 C 9.45 g/m*3 10.9 C 0 km/h
38 14-11-2020 03:05:00 10.8 C 9.29 g/m*3 10.8 C 1.6 km/h
39 14-11-2020 03:10:00 10.8 C 9.29 g/m*3 10.8 C 1.6 km/h
40 14-11-2020 03:15:00 10.7 C 9.23 g/m*3 10.7 C 3.2 km/h
41 14-11-2020 03:20:00 10.7 C 9.23 g/m*3 10.7 C 3.2 km/h
42 14-11-2020 03:25:00 10.7 C 9.23 g/m*3 10.7 C 1.6 km/h
43 14-11-2020 03:30:00 10.6 C 9.17 g/m*3 10.6 C 3.2 km/h
44 14-11-2020 03:35:00 10.4 C 9.06 g/m*3 10.4 C 1.6 km/h
45 14-11-2020 03:40:00 10.3 C 9 g/m*3 10.3 C 0 km/h
46 14-11-2020 03:45:00 10.3 C 9 g/m*3 10.3 C 1.6 km/h
47 14-11-2020 03:50:00 10.2 C 8.95 g/m*3 10.2 C 4.8 km/h
48 14-11-2020 03:55:00 10.2 C 8.95 g/m*3 10.2 C 3.2 km/h
49 14-11-2020 04:00:00 10.2 C 8.95 g/m*3 10.2 C 4.8 km/h
50 14-11-2020 04:05:00 10.1 C 8.89 g/m*3 10.1 C 3.2 km/h
Sensor: Nr:Datum:Temp:Abs-Feuchte:Windchill:Wind:
Aussen-T/F 51 14-11-2020 04:10:00 10.1 C 8.89 g/m*3 10.1 C 4.8 km/h
52 14-11-2020 04:15:00 10.1 C 8.89 g/m*3 9.48 C 6.4 km/h
53 14-11-2020 04:20:00 10.1 C 8.89 g/m*3 9.48 C 6.4 km/h
54 14-11-2020 04:25:00 10.1 C 8.89 g/m*3 9.48 C 6.4 km/h
55 14-11-2020 04:30:00 10.1 C 8.89 g/m*3 10.1 C 3.2 km/h
56 14-11-2020 04:35:00 10 C 8.83 g/m*3 10 C 1.6 km/h
57 14-11-2020 04:40:00 9.9 C 8.78 g/m*3 9.9 C 0 km/h
58 14-11-2020 04:45:00 9.9 C 8.78 g/m*3 9.9 C 0 km/h
59 14-11-2020 04:50:00 9.8 C 8.72 g/m*3 9.8 C 0 km/h
60 14-11-2020 04:55:00 9.8 C 8.72 g/m*3 9.8 C 0 km/h
61 14-11-2020 05:00:00 9.7 C 8.67 g/m*3 9.7 C 0 km/h
62 14-11-2020 05:05:00 9.6 C 8.61 g/m*3 9.6 C 4.8 km/h
63 14-11-2020 05:10:00 9.6 C 8.61 g/m*3 9.6 C 1.6 km/h
64 14-11-2020 05:15:00 9.4 C 8.5 g/m*3 9.4 C 3.2 km/h
65 14-11-2020 05:20:00 9.2 C 8.3 g/m*3 9.2 C 4.8 km/h
66 14-11-2020 05:25:00 8.9 C 8.15 g/m*3 8.9 C 3.2 km/h
67 14-11-2020 05:30:00 8.8 C 8.09 g/m*3 8.8 C 0 km/h
68 14-11-2020 05:35:00 8.7 C 8.04 g/m*3 8.7 C 0 km/h
69 14-11-2020 05:40:00 8.6 C 8.08 g/m*3 8.6 C 1.6 km/h
70 14-11-2020 05:45:00 8.5 C 8.03 g/m*3 8.5 C 0 km/h
71 14-11-2020 05:50:00 8.4 C 7.97 g/m*3 8.4 C 0 km/h
72 14-11-2020 05:55:00 8.3 C 7.92 g/m*3 8.3 C 0 km/h
73 14-11-2020 06:00:00 8.2 C 7.87 g/m*3 8.2 C 0 km/h
74 14-11-2020 06:05:00 8.1 C 7.82 g/m*3 8.1 C 0 km/h
75 14-11-2020 06:10:00 8 C 7.77 g/m*3 8 C 0 km/h
Sensor: Nr:Datum:Temp:Abs-Feuchte:Windchill:Wind:
Aussen-T/F 76 14-11-2020 06:15:00 7.9 C 7.8 g/m*3 7.9 C 0 km/h
77 14-11-2020 06:20:00 8 C 7.85 g/m*3 8 C 0 km/h
78 14-11-2020 06:25:00 8 C 7.85 g/m*3 8 C 0 km/h
79 14-11-2020 06:30:00 7.8 C 7.75 g/m*3 7.8 C 0 km/h
80 14-11-2020 06:35:00 7.7 C 7.7 g/m*3 7.7 C 0 km/h
81 14-11-2020 06:40:00 7.6 C 7.65 g/m*3 7.6 C 0 km/h
82 14-11-2020 06:45:00 7.5 C 7.52 g/m*3 7.5 C 0 km/h
83 14-11-2020 06:50:00 7.4 C 7.55 g/m*3 7.4 C 0 km/h
84 14-11-2020 06:55:00 7.3 C 7.51 g/m*3 7.3 C 0 km/h
85 14-11-2020 07:00:00 7.2 C 7.46 g/m*3 7.2 C 0 km/h
86 14-11-2020 07:05:00 7.2 C 7.46 g/m*3 7.2 C 0 km/h
87 14-11-2020 07:10:00 7.1 C 7.41 g/m*3 7.1 C 0 km/h
88 14-11-2020 07:15:00 7.1 C 7.41 g/m*3 7.1 C 0 km/h
89 14-11-2020 07:20:00 7.2 C 7.54 g/m*3 7.2 C 1.6 km/h
90 14-11-2020 07:25:00 7.2 C 7.54 g/m*3 7.2 C 0 km/h
91 14-11-2020 07:30:00 7.2 C 7.54 g/m*3 7.2 C 0 km/h
92 14-11-2020 07:35:00 7.2 C 7.54 g/m*3 7.2 C 0 km/h
93 14-11-2020 07:40:00 7.2 C 7.54 g/m*3 7.2 C 0 km/h
94 14-11-2020 07:45:00 7.2 C 7.54 g/m*3 7.2 C 0 km/h
95 14-11-2020 07:50:00 7.2 C 7.54 g/m*3 7.2 C 0 km/h
96 14-11-2020 07:55:00 7.2 C 7.54 g/m*3 7.2 C 1.6 km/h
97 14-11-2020 08:00:00 7.2 C 7.54 g/m*3 7.2 C 0 km/h
98 14-11-2020 08:05:00 7.1 C 7.49 g/m*3 7.1 C 0 km/h
99 14-11-2020 08:10:00 7 C 7.44 g/m*3 7 C 0 km/h
100 14-11-2020 08:15:00 7 C 7.44 g/m*3 7 C 0 km/h
Sensor: Nr:Datum:Temp:Abs-Feuchte:Windchill:Wind:
Aussen-T/F 101 14-11-2020 08:20:00 7 C 7.44 g/m*3 7 C 0 km/h
102 14-11-2020 08:25:00 7.1 C 7.49 g/m*3 7.1 C 0 km/h
103 14-11-2020 08:30:00 7 C 7.44 g/m*3 7 C 0 km/h
104 14-11-2020 08:35:00 7 C 7.44 g/m*3 7 C 0 km/h
105 14-11-2020 08:40:00 7 C 7.44 g/m*3 7 C 0 km/h
106 14-11-2020 08:45:00 7.1 C 7.49 g/m*3 7.1 C 0 km/h
107 14-11-2020 08:50:00 7.1 C 7.49 g/m*3 7.1 C 0 km/h
108 14-11-2020 08:55:00 7.1 C 7.49 g/m*3 7.1 C 0 km/h
109 14-11-2020 09:00:00 7.2 C 7.54 g/m*3 7.2 C 0 km/h
110 14-11-2020 09:05:00 7.2 C 7.54 g/m*3 7.2 C 0 km/h
111 14-11-2020 09:10:00 7.3 C 7.58 g/m*3 7.3 C 0 km/h
112 14-11-2020 09:15:00 7.3 C 7.58 g/m*3 7.3 C 0 km/h
113 14-11-2020 09:20:00 7.3 C 7.58 g/m*3 7.3 C 0 km/h
114 14-11-2020 09:25:00 7.3 C 7.66 g/m*3 7.3 C 0 km/h
115 14-11-2020 09:30:00 7.4 C 7.71 g/m*3 7.4 C 0 km/h
116 14-11-2020 09:35:00 7.4 C 7.71 g/m*3 7.4 C 0 km/h
117 14-11-2020 09:40:00 7.6 C 7.81 g/m*3 7.6 C 0 km/h
118 14-11-2020 09:45:00 7.7 C 7.87 g/m*3 7.7 C 0 km/h
119 14-11-2020 09:50:00 7.7 C 7.87 g/m*3 7.7 C 0 km/h
120 14-11-2020 09:55:00 7.8 C 7.92 g/m*3 7.8 C 0 km/h
121 14-11-2020 10:00:00 7.9 C 7.97 g/m*3 7.9 C 0 km/h
122 14-11-2020 10:05:00 8 C 8.02 g/m*3 8 C 0 km/h
123 14-11-2020 10:10:00 8.1 C 8.07 g/m*3 8.1 C 0 km/h
124 14-11-2020 10:15:00 8.2 C 8.12 g/m*3 8.2 C 0 km/h
125 14-11-2020 10:20:00 8.3 C 8.18 g/m*3 8.3 C 0 km/h
Sensor: Nr:Datum:Temp:Abs-Feuchte:Windchill:Wind:
Aussen-T/F 126 14-11-2020 10:25:00 8.5 C 8.28 g/m*3 8.5 C 0 km/h
127 14-11-2020 10:30:00 8.8 C 8.44 g/m*3 8.8 C 1.6 km/h
128 14-11-2020 10:35:00 9.1 C 8.61 g/m*3 9.1 C 0 km/h
129 14-11-2020 10:40:00 9.3 C 8.81 g/m*3 9.3 C 0 km/h
130 14-11-2020 10:45:00 9.4 C 8.77 g/m*3 9.4 C 0 km/h
131 14-11-2020 10:50:00 9.7 C 9.03 g/m*3 9.7 C 0 km/h
132 14-11-2020 10:55:00 10 C 9.21 g/m*3 10 C 0 km/h
133 14-11-2020 11:00:00 10.4 C 9.44 g/m*3 10.4 C 1.6 km/h
134 14-11-2020 11:05:00 10.6 C 9.57 g/m*3 10.6 C 0 km/h
135 14-11-2020 11:10:00 10.6 C 9.57 g/m*3 10.6 C 0 km/h
136 14-11-2020 11:15:00 10.7 C 9.53 g/m*3 10.7 C 0 km/h
137 14-11-2020 11:20:00 10.8 C 9.59 g/m*3 10.8 C 1.6 km/h
138 14-11-2020 11:25:00 11.1 C 9.77 g/m*3 11.1 C 0 km/h
139 14-11-2020 11:30:00 11.3 C 10 g/m*3 11.3 C 0 km/h
140 14-11-2020 11:35:00 11.4 C 9.96 g/m*3 11.4 C 0 km/h
141 14-11-2020 11:40:00 11.6 C 10.08 g/m*3 11.6 C 0 km/h
142 14-11-2020 11:45:00 11.7 C 10.15 g/m*3 11.7 C 0 km/h
143 14-11-2020 11:50:00 11.8 C 10.21 g/m*3 11.8 C 0 km/h
144 14-11-2020 11:55:00 12 C 10.23 g/m*3 12 C 0 km/h
145 14-11-2020 12:00:00 12.1 C 10.29 g/m*3 12.1 C 0 km/h
146 14-11-2020 12:05:00 12.2 C 10.25 g/m*3 12.2 C 0 km/h
147 14-11-2020 12:10:00 12.4 C 10.27 g/m*3 12.4 C 0 km/h
148 14-11-2020 12:15:00 12.6 C 10.4 g/m*3 12.6 C 1.6 km/h
149 14-11-2020 12:20:00 12.7 C 10.35 g/m*3 12.7 C 0 km/h
150 14-11-2020 12:25:00 12.9 C 10.48 g/m*3 12.9 C 0 km/h
Sensor: Nr:Datum:Temp:Abs-Feuchte:Windchill:Wind:
Aussen-T/F 151 14-11-2020 12:30:00 13.2 C 10.56 g/m*3 13.2 C 0 km/h
152 14-11-2020 12:35:00 13.3 C 10.51 g/m*3 13.3 C 0 km/h
153 14-11-2020 12:40:00 13.5 C 10.64 g/m*3 13.5 C 0 km/h
154 14-11-2020 12:45:00 13.7 C 10.78 g/m*3 13.7 C 0 km/h
155 14-11-2020 12:50:00 13.8 C 10.72 g/m*3 13.8 C 1.6 km/h
156 14-11-2020 12:55:00 13.9 C 10.79 g/m*3 13.9 C 0 km/h
157 14-11-2020 13:00:00 13.9 C 10.67 g/m*3 13.9 C 1.6 km/h
158 14-11-2020 13:05:00 14.1 C 10.8 g/m*3 14.1 C 0 km/h
159 14-11-2020 13:10:00 14.1 C 10.8 g/m*3 14.1 C 0 km/h
160 14-11-2020 13:15:00 14.2 C 10.75 g/m*3 14.2 C 3.2 km/h
161 14-11-2020 13:20:00 14.2 C 10.62 g/m*3 14.2 C 6.4 km/h
162 14-11-2020 13:25:00 14.3 C 10.44 g/m*3 14.3 C 8.1 km/h
163 14-11-2020 13:30:00 14.6 C 10.51 g/m*3 14.6 C 3.2 km/h
164 14-11-2020 13:35:00 14.7 C 10.2 g/m*3 14.7 C 11.3 km/h
165 14-11-2020 13:40:00 15.1 C 10.45 g/m*3 15.1 C 9.7 km/h
166 14-11-2020 13:45:00 15.2 C 10.38 g/m*3 15.2 C 9.7 km/h
167 14-11-2020 13:50:00 15.3 C 10.32 g/m*3 15.3 C 9.7 km/h
168 14-11-2020 13:55:00 15.3 C 10.45 g/m*3 15.3 C 9.7 km/h
169 14-11-2020 14:00:00 15.3 C 10.45 g/m*3 15.3 C 8.1 km/h
170 14-11-2020 14:05:00 15.3 C 10.45 g/m*3 15.3 C 4.8 km/h
171 14-11-2020 14:10:00 15.3 C 10.45 g/m*3 15.3 C 1.6 km/h
172 14-11-2020 14:15:00 15.2 C 10.25 g/m*3 15.2 C 6.4 km/h
173 14-11-2020 14:20:00 15.1 C 10.32 g/m*3 15.1 C 1.6 km/h
174 14-11-2020 14:25:00 15.1 C 10.45 g/m*3 15.1 C 3.2 km/h
175 14-11-2020 14:30:00 14.9 C 10.2 g/m*3 14.9 C 4.8 km/h
Sensor: Nr:Datum:Temp:Abs-Feuchte:Windchill:Wind:
Aussen-T/F 176 14-11-2020 14:35:00 14.9 C 10.32 g/m*3 14.9 C 3.2 km/h
177 14-11-2020 14:40:00 14.8 C 10.39 g/m*3 14.8 C 6.4 km/h
178 14-11-2020 14:45:00 14.7 C 10.2 g/m*3 14.7 C 3.2 km/h
179 14-11-2020 14:50:00 14.7 C 10.32 g/m*3 14.7 C 4.8 km/h
180 14-11-2020 14:55:00 14.6 C 10.26 g/m*3 14.6 C 0 km/h
181 14-11-2020 15:00:00 14.6 C 10.26 g/m*3 14.6 C 1.6 km/h
182 14-11-2020 15:05:00 14.4 C 10.26 g/m*3 14.4 C 4.8 km/h
183 14-11-2020 15:10:00 14.4 C 10.26 g/m*3 14.4 C 3.2 km/h
184 14-11-2020 15:15:00 14.3 C 10.2 g/m*3 14.3 C 3.2 km/h
185 14-11-2020 15:20:00 14.2 C 10.26 g/m*3 14.2 C 3.2 km/h
186 14-11-2020 15:25:00 14.1 C 10.19 g/m*3 14.1 C 4.8 km/h
187 14-11-2020 15:30:00 14.1 C 10.32 g/m*3 14.1 C 3.2 km/h
188 14-11-2020 15:35:00 13.9 C 10.19 g/m*3 13.9 C 4.8 km/h
189 14-11-2020 15:40:00 13.9 C 10.19 g/m*3 13.9 C 0 km/h
190 14-11-2020 15:45:00 13.8 C 10.25 g/m*3 13.8 C 4.8 km/h
191 14-11-2020 15:50:00 13.8 C 10.25 g/m*3 13.8 C 6.4 km/h
192 14-11-2020 15:55:00 13.7 C 10.18 g/m*3 13.7 C 3.2 km/h
193 14-11-2020 16:00:00 13.6 C 10.12 g/m*3 13.6 C 3.2 km/h
194 14-11-2020 16:05:00 13.6 C 10.12 g/m*3 13.6 C 4.8 km/h
195 14-11-2020 16:10:00 13.4 C 10.11 g/m*3 13.4 C 6.4 km/h
196 14-11-2020 16:15:00 13.4 C 10.11 g/m*3 13.4 C 4.8 km/h
197 14-11-2020 16:20:00 13.3 C 10.05 g/m*3 13.3 C 4.8 km/h
198 14-11-2020 16:25:00 13.2 C 9.99 g/m*3 13.2 C 6.4 km/h
199 14-11-2020 16:30:00 13.1 C 9.93 g/m*3 13.1 C 4.8 km/h
200 14-11-2020 16:35:00 12.9 C 9.81 g/m*3 12.9 C 6.4 km/h
Sensor: Nr:Datum:Temp:Abs-Feuchte:Windchill:Wind:
Aussen-T/F 201 14-11-2020 16:40:00 12.8 C 9.86 g/m*3 12.8 C 4.8 km/h
202 14-11-2020 16:45:00 12.7 C 9.8 g/m*3 12.7 C 4.8 km/h
203 14-11-2020 16:50:00 12.6 C 9.74 g/m*3 12.6 C 4.8 km/h
204 14-11-2020 16:55:00 12.4 C 9.62 g/m*3 12.4 C 4.8 km/h
205 14-11-2020 17:00:00 12.3 C 9.56 g/m*3 12.3 C 6.4 km/h
206 14-11-2020 17:05:00 12.2 C 9.6 g/m*3 12.2 C 6.4 km/h
207 14-11-2020 17:10:00 12.1 C 9.54 g/m*3 12.1 C 3.2 km/h
208 14-11-2020 17:15:00 11.9 C 9.43 g/m*3 11.9 C 6.4 km/h
209 14-11-2020 17:20:00 11.8 C 9.37 g/m*3 11.8 C 4.8 km/h
210 14-11-2020 17:25:00 11.7 C 9.41 g/m*3 11.7 C 1.6 km/h
211 14-11-2020 17:30:00 11.7 C 9.41 g/m*3 11.7 C 0 km/h
212 14-11-2020 17:35:00 11.6 C 9.35 g/m*3 11.6 C 0 km/h
213 14-11-2020 17:40:00 11.4 C 9.34 g/m*3 11.4 C 0 km/h
214 14-11-2020 17:45:00 11.4 C 9.34 g/m*3 11.4 C 0 km/h
215 14-11-2020 17:50:00 11.3 C 9.28 g/m*3 11.3 C 0 km/h
216 14-11-2020 17:55:00 11.2 C 9.22 g/m*3 11.2 C 0 km/h
217 14-11-2020 18:00:00 11.1 C 9.27 g/m*3 11.1 C 0 km/h
218 14-11-2020 18:05:00 11.1 C 9.27 g/m*3 11.1 C 0 km/h
219 14-11-2020 18:10:00 10.9 C 9.15 g/m*3 10.9 C 0 km/h
220 14-11-2020 18:15:00 10.9 C 9.15 g/m*3 10.9 C 0 km/h
221 14-11-2020 18:20:00 10.8 C 9.09 g/m*3 10.8 C 0 km/h
222 14-11-2020 18:25:00 10.7 C 9.04 g/m*3 10.7 C 0 km/h
223 14-11-2020 18:30:00 10.7 C 9.13 g/m*3 10.7 C 0 km/h
224 14-11-2020 18:35:00 10.7 C 9.13 g/m*3 10.7 C 0 km/h
225 14-11-2020 18:40:00 10.6 C 9.08 g/m*3 10.6 C 0 km/h
Sensor: Nr:Datum:Temp:Abs-Feuchte:Windchill:Wind:
Aussen-T/F 226 14-11-2020 18:45:00 10.6 C 9.08 g/m*3 10.6 C 0 km/h
227 14-11-2020 18:50:00 10.5 C 9.02 g/m*3 10.5 C 0 km/h
228 14-11-2020 18:55:00 10.4 C 8.96 g/m*3 10.4 C 0 km/h
229 14-11-2020 19:00:00 10.4 C 8.96 g/m*3 10.4 C 0 km/h
230 14-11-2020 19:05:00 10.4 C 8.96 g/m*3 10.4 C 0 km/h
231 14-11-2020 19:10:00 10.3 C 8.91 g/m*3 10.3 C 0 km/h
232 14-11-2020 19:15:00 10.3 C 8.91 g/m*3 10.3 C 4.8 km/h
233 14-11-2020 19:20:00 10.3 C 9 g/m*3 10.3 C 3.2 km/h
234 14-11-2020 19:25:00 10.3 C 9 g/m*3 10.3 C 4.8 km/h
235 14-11-2020 19:30:00 10.2 C 8.95 g/m*3 10.2 C 4.8 km/h
236 14-11-2020 19:35:00 10.2 C 8.95 g/m*3 10.2 C 1.6 km/h
237 14-11-2020 19:40:00 10.2 C 8.95 g/m*3 10.2 C 3.2 km/h
238 14-11-2020 19:45:00 10.1 C 8.89 g/m*3 10.1 C 3.2 km/h
239 14-11-2020 19:50:00 9.9 C 8.78 g/m*3 9.9 C 0 km/h
240 14-11-2020 19:55:00 9.7 C 8.57 g/m*3 9.7 C 0 km/h
241 14-11-2020 20:00:00 9.6 C 8.52 g/m*3 9.6 C 0 km/h
242 14-11-2020 20:05:00 9.6 C 8.61 g/m*3 9.6 C 0 km/h
243 14-11-2020 20:10:00 9.5 C 8.56 g/m*3 9.5 C 0 km/h
244 14-11-2020 20:15:00 9.4 C 8.5 g/m*3 9.4 C 0 km/h
245 14-11-2020 20:20:00 9.4 C 8.5 g/m*3 9.4 C 0 km/h
246 14-11-2020 20:25:00 9.4 C 8.5 g/m*3 9.4 C 0 km/h
247 14-11-2020 20:30:00 9.3 C 8.45 g/m*3 9.3 C 0 km/h
248 14-11-2020 20:35:00 9.3 C 8.45 g/m*3 9.3 C 0 km/h
249 14-11-2020 20:40:00 9.3 C 8.54 g/m*3 9.3 C 0 km/h
250 14-11-2020 20:45:00 9.4 C 8.59 g/m*3 9.4 C 0 km/h
Sensor: Nr:Datum:Temp:Abs-Feuchte:Windchill:Wind:
Aussen-T/F 251 14-11-2020 20:50:00 9.4 C 8.59 g/m*3 9.4 C 0 km/h
252 14-11-2020 20:55:00 9.4 C 8.59 g/m*3 9.4 C 0 km/h
253 14-11-2020 21:00:00 9.4 C 8.59 g/m*3 9.4 C 0 km/h
254 14-11-2020 21:05:00 9.3 C 8.54 g/m*3 9.3 C 0 km/h
255 14-11-2020 21:10:00 9.4 C 8.59 g/m*3 9.4 C 0 km/h
256 14-11-2020 21:15:00 9.4 C 8.68 g/m*3 9.4 C 0 km/h
257 14-11-2020 21:20:00 9.6 C 8.79 g/m*3 9.6 C 0 km/h
258 14-11-2020 21:25:00 9.7 C 8.85 g/m*3 9.7 C 0 km/h
259 14-11-2020 21:30:00 9.7 C 8.85 g/m*3 9.7 C 0 km/h
260 14-11-2020 21:35:00 9.6 C 8.79 g/m*3 9.6 C 0 km/h
261 14-11-2020 21:40:00 9.6 C 8.79 g/m*3 9.6 C 0 km/h
262 14-11-2020 21:45:00 9.6 C 8.79 g/m*3 9.6 C 0 km/h
263 14-11-2020 21:50:00 9.4 C 8.68 g/m*3 9.4 C 0 km/h
264 14-11-2020 21:55:00 9.4 C 8.68 g/m*3 9.4 C 0 km/h
265 14-11-2020 22:00:00 9.4 C 8.68 g/m*3 9.4 C 0 km/h
266 14-11-2020 22:05:00 9.5 C 8.74 g/m*3 9.5 C 0 km/h
267 14-11-2020 22:10:00 9.5 C 8.74 g/m*3 9.5 C 0 km/h
268 14-11-2020 22:15:00 9.6 C 8.79 g/m*3 9.6 C 0 km/h
269 14-11-2020 22:20:00 9.6 C 8.79 g/m*3 9.6 C 0 km/h
270 14-11-2020 22:25:00 9.5 C 8.74 g/m*3 9.5 C 0 km/h
271 14-11-2020 22:30:00 9.4 C 8.68 g/m*3 9.4 C 0 km/h
272 14-11-2020 22:35:00 9.4 C 8.68 g/m*3 9.4 C 0 km/h
273 14-11-2020 22:40:00 9.4 C 8.68 g/m*3 9.4 C 0 km/h
274 14-11-2020 22:45:00 9.4 C 8.68 g/m*3 9.4 C 3.2 km/h
275 14-11-2020 22:50:00 9.5 C 8.74 g/m*3 9.5 C 0 km/h
Sensor: Nr:Datum:Temp:Abs-Feuchte:Windchill:Wind:
Aussen-T/F 276 14-11-2020 22:55:00 9.6 C 8.79 g/m*3 9.6 C 0 km/h
277 14-11-2020 23:00:00 9.6 C 8.79 g/m*3 9.6 C 1.6 km/h
278 14-11-2020 23:05:00 9.7 C 8.85 g/m*3 9.7 C 0 km/h
279 14-11-2020 23:10:00 9.7 C 8.85 g/m*3 9.7 C 0 km/h
280 14-11-2020 23:15:00 9.6 C 8.79 g/m*3 9.6 C 0 km/h
281 14-11-2020 23:20:00 9.4 C 8.68 g/m*3 9.4 C 0 km/h
282 14-11-2020 23:25:00 9.4 C 8.68 g/m*3 9.4 C 3.2 km/h
283 14-11-2020 23:30:00 9.4 C 8.68 g/m*3 9.4 C 4.8 km/h
284 14-11-2020 23:35:00 9.5 C 8.74 g/m*3 9.5 C 0 km/h
285 14-11-2020 23:40:00 9.5 C 8.74 g/m*3 9.5 C 1.6 km/h
286 14-11-2020 23:45:00 9.7 C 8.94 g/m*3 9.7 C 1.6 km/h
287 14-11-2020 23:50:00 9.9 C 9.06 g/m*3 9.9 C 1.6 km/h
288 14-11-2020 23:55:00 10.3 C 9.29 g/m*3 10.3 C 3.2 km/h

Legende:
   Min
   Max


Maximal/Minimal-Werte vom 14.11.2020 - 14.11.2020

Sensor Min Max Avg
Temp
(Aussen-T/F)
7 °C
14-11-2020  08:10:00
15.3 °C
14-11-2020  13:50:00
10.46 °C
Abs-Feuchte
(Aussen-T/F)
7.41 g/m*3
14-11-2020  07:10:00
10.8 g/m*3
14-11-2020  13:05:00
8.99 g/m*3
Windchill
(Aussen-T/F)
7 C
14-11-2020  08:10:00
15.3 C
14-11-2020  13:50:00
10.42 C

Die Daten stammen von einer Davis Vantage Pro 2 Wetter-Station und werden unter Linux mit der Software wview2wettercgi und aufbereitet. Alle Angaben erfolgen ohne Gewähr für ihre Vollständigkeit oder Richtigkeit.
Kontakt: Rainer Krienke krienke@uni-koblenz.de . Meine Webseiten an der Uni Koblenz oder privat.
Version: $Revision: 0.78 $